Time;durP1;ratioP1;P1;durP2;ratioP2;P2;SDS_P1;SDS_P2;PMS_P1;PMS_P2;Temp;Humidity;BMP_temperature;BMP_pressure;BME280_temperature;BME280_humidity;BME280_pressure;Samples;Min_cycle;Max_cycle;Signal;HPM_P1;HPM_P2
2023/05/23 00:00:16;;;;;;;10.45;6.90;;;;;;;14.63;100.00;101032.38;4938037;29;20032;-70
2023/05/23 00:02:43;;;;;;;14.52;8.43;;;;;;;14.63;100.00;101015.59;4906602;29;20052;-70
2023/05/23 00:05:09;;;;;;;13.57;7.75;;;;;;;14.63;100.00;101018.38;4922185;29;20038;-70
2023/05/23 00:07:34;;;;;;;11.13;7.03;;;;;;;14.59;100.00;101020.94;4922080;29;20043;-70
2023/05/23 00:10:00;;;;;;;13.20;7.20;;;;;;;14.55;100.00;101030.28;4921974;29;20485;-71
2023/05/23 00:12:26;;;;;;;9.25;6.68;;;;;;;14.52;100.00;101026.13;4921838;29;20218;-70
2023/05/23 00:14:52;;;;;;;11.40;6.85;;;;;;;14.50;100.00;101023.59;4937980;29;20078;-70
2023/05/23 00:17:18;;;;;;;14.23;6.90;;;;;;;14.43;100.00;101014.81;4906130;29;20032;-70
2023/05/23 00:19:44;;;;;;;11.65;7.07;;;;;;;14.40;100.00;101026.59;4921845;29;20028;-70
2023/05/23 00:22:11;;;;;;;14.02;6.90;;;;;;;14.37;100.00;101018.81;4934884;29;20040;-70
2023/05/23 00:24:36;;;;;;;10.07;6.63;;;;;;;14.33;100.00;101020.56;4921770;29;20043;-70
2023/05/23 00:27:02;;;;;;;13.55;6.68;;;;;;;14.30;100.00;101018.41;4921767;29;20036;-70
2023/05/23 00:29:27;;;;;;;11.88;7.03;;;;;;;14.27;100.00;101013.44;4883170;29;20043;-70
2023/05/23 00:31:53;;;;;;;15.38;6.75;;;;;;;14.21;100.00;101007.09;4922074;29;20047;-70
2023/05/23 00:34:18;;;;;;;11.25;6.60;;;;;;;14.22;100.00;100999.53;4937653;29;20031;-70
2023/05/23 00:36:46;;;;;;;12.00;7.35;;;;;;;14.16;100.00;101007.19;4921711;29;20031;-70
2023/05/23 00:39:17;;;;;;;15.35;8.10;;;;;;;14.13;100.00;101015.34;4921564;29;20477;-70
2023/05/23 00:41:46;;;;;;;12.10;7.47;;;;;;;14.06;100.00;101010.97;4922676;29;20039;-70
2023/05/23 00:44:12;;;;;;;10.63;7.00;;;;;;;14.01;100.00;101004.63;4921375;29;20032;-70
2023/05/23 00:46:38;;;;;;;16.67;8.73;;;;;;;13.93;100.00;101008.97;4937402;29;20032;-70
2023/05/23 00:49:03;;;;;;;16.67;10.05;;;;;;;13.85;100.00;101001.28;4921883;29;20038;-70
2023/05/23 00:51:30;;;;;;;13.75;7.70;;;;;;;13.74;100.00;101005.38;4921736;29;20050;-70
2023/05/23 00:53:55;;;;;;;16.10;9.45;;;;;;;13.70;100.00;100999.56;4921133;29;20122;-70
2023/05/23 00:56:21;;;;;;;15.45;9.20;;;;;;;13.68;100.00;100995.41;4921469;29;20063;-70
2023/05/23 00:58:46;;;;;;;14.48;9.75;;;;;;;13.59;100.00;100998.06;4921910;29;20028;-70
2023/05/23 01:01:12;;;;;;;16.02;10.25;;;;;;;13.56;100.00;100999.50;4905791;29;20028;-70
2023/05/23 01:03:38;;;;;;;16.60;8.82;;;;;;;13.55;100.00;100997.84;4936590;29;20095;-70
2023/05/23 01:06:03;;;;;;;14.95;9.75;;;;;;;13.45;100.00;100995.19;4905780;29;20421;-70
2023/05/23 01:08:29;;;;;;;13.50;8.00;;;;;;;13.52;100.00;100997.63;4918459;29;20040;-70
2023/05/23 01:10:55;;;;;;;15.70;8.98;;;;;;;13.50;100.00;100994.31;4934007;29;20039;-70
2023/05/23 01:13:27;;;;;;;16.90;8.48;;;;;;;13.47;100.00;100992.94;4921683;29;20027;-70
2023/05/23 01:16:06;;;;;;;16.58;8.57;;;;;;;13.45;100.00;100986.81;4937203;29;20504;-70
2023/05/23 01:18:36;;;;;;;17.10;9.73;;;;;;;13.30;100.00;100992.63;4937164;29;20477;-70
2023/05/23 01:21:22;;;;;;;21.85;11.65;;;;;;;13.24;100.00;100997.44;4934095;29;20101;-70
2023/05/23 01:24:19;;;;;;;19.38;10.40;;;;;;;13.23;100.00;100980.97;4920427;29;20074;-70
2023/05/23 01:27:00;;;;;;;16.73;10.32;;;;;;;13.21;100.00;100988.84;4940852;29;20441;-70
2023/05/23 01:29:28;;;;;;;21.58;10.98;;;;;;;13.17;100.00;100981.06;4924959;29;20063;-70
2023/05/23 01:31:55;;;;;;;16.30;11.18;;;;;;;13.11;100.00;100973.88;4923988;29;20470;-70
2023/05/23 01:34:21;;;;;;;16.42;11.43;;;;;;;13.18;100.00;100981.91;4921378;29;20029;-70
2023/05/23 01:36:49;;;;;;;16.05;9.07;;;;;;;13.19;100.00;100981.59;4924676;29;20054;-70
2023/05/23 01:39:14;;;;;;;18.02;10.02;;;;;;;13.22;100.00;100982.13;4940408;29;20510;-70
2023/05/23 01:41:40;;;;;;;17.92;9.23;;;;;;;13.16;100.00;100986.94;4924365;29;20027;-70
2023/05/23 01:44:05;;;;;;;16.88;9.77;;;;;;;13.16;100.00;100984.97;4937330;29;20228;-70
2023/05/23 01:46:31;;;;;;;17.50;10.38;;;;;;;13.09;100.00;100990.13;4924385;29;20044;-70
2023/05/23 01:48:56;;;;;;;16.73;11.00;;;;;;;13.05;100.00;100993.78;4940407;29;20090;-70
2023/05/23 01:51:22;;;;;;;21.33;12.68;;;;;;;12.95;100.00;100992.81;4924671;29;20031;-70
2023/05/23 01:53:49;;;;;;;17.80;11.40;;;;;;;12.97;100.00;100992.47;4925075;29;20048;-70
2023/05/23 01:56:14;;;;;;;15.93;10.38;;;;;;;12.94;100.00;100987.50;4924112;29;20047;-70
2023/05/23 01:58:40;;;;;;;20.75;12.57;;;;;;;12.94;100.00;100984.72;4921260;29;20477;-70
2023/05/23 02:01:05;;;;;;;17.92;11.70;;;;;;;12.92;100.00;100982.22;4905510;29;20028;-70
2023/05/23 02:03:31;;;;;;;22.17;12.85;;;;;;;12.93;100.00;100978.31;4924378;29;20397;-70
2023/05/23 02:05:56;;;;;;;21.15;11.80;;;;;;;12.98;100.00;100980.19;4908666;29;20043;-70
2023/05/23 02:08:22;;;;;;;17.25;11.07;;;;;;;12.99;100.00;100975.47;4921226;29;20032;-70
2023/05/23 02:10:47;;;;;;;21.45;12.55;;;;;;;12.89;100.00;100973.63;4904971;29;20024;-70
2023/05/23 02:13:13;;;;;;;21.55;11.15;;;;;;;12.95;100.00;100978.84;4923980;29;20039;-70
2023/05/23 02:15:38;;;;;;;24.60;13.45;;;;;;;12.89;100.00;100982.81;4940080;29;20028;-70
2023/05/23 02:18:05;;;;;;;23.80;11.23;;;;;;;12.89;100.00;100970.84;4920905;29;20028;-70
2023/05/23 02:20:30;;;;;;;16.42;9.55;;;;;;;12.95;100.00;100969.63;4920683;29;20025;-70
2023/05/23 02:22:56;;;;;;;26.20;12.18;;;;;;;12.88;100.00;100983.13;4924277;29;20046;-70
2023/05/23 02:25:21;;;;;;;16.50;10.48;;;;;;;12.91;100.00;100983.34;4939690;29;20082;-70
2023/05/23 02:27:47;;;;;;;21.85;12.10;;;;;;;12.90;100.00;100987.28;4923830;29;20031;-70
2023/05/23 02:30:12;;;;;;;16.42;9.88;;;;;;;12.94;100.00;100982.75;4894776;29;20063;-70
2023/05/23 02:32:38;;;;;;;16.80;9.38;;;;;;;12.98;100.00;100994.13;4939748;29;20465;-70
2023/05/23 02:35:05;;;;;;;17.02;10.15;;;;;;;12.97;100.00;100990.53;4921368;29;20039;-70
2023/05/23 02:37:30;;;;;;;18.50;10.05;;;;;;;13.02;100.00;100986.84;4923592;29;20032;-70
2023/05/23 02:39:56;;;;;;;15.00;9.85;;;;;;;12.97;100.00;100987.72;4939270;29;20035;-70
2023/05/23 02:42:21;;;;;;;20.23;12.20;;;;;;;13.00;100.00;100979.91;4939641;29;20469;-70
2023/05/23 02:44:47;;;;;;;16.67;9.23;;;;;;;12.97;100.00;100986.91;4922786;29;20480;-70
2023/05/23 02:47:12;;;;;;;19.73;9.23;;;;;;;13.02;100.00;100989.63;4920234;29;20054;-70
2023/05/23 02:49:37;;;;;;;18.75;10.70;;;;;;;13.03;100.00;100990.47;4919947;29;20031;-70
2023/05/23 02:52:03;;;;;;;18.85;9.68;;;;;;;13.03;100.00;100991.28;4923389;29;20095;-70
2023/05/23 02:54:28;;;;;;;22.85;11.38;;;;;;;13.03;100.00;100990.47;4907289;29;20036;-70
2023/05/23 02:56:54;;;;;;;21.40;11.27;;;;;;;12.97;100.00;100998.88;4935973;29;20048;-70
2023/05/23 02:59:21;;;;;;;17.23;9.10;;;;;;;13.01;100.00;101001.06;4919974;29;20035;-70
2023/05/23 03:01:47;;;;;;;16.42;8.80;;;;;;;12.98;100.00;101002.50;4920106;29;20032;-70
2023/05/23 03:04:13;;;;;;;18.50;9.57;;;;;;;12.92;100.00;100993.38;4933964;28;20039;-70
2023/05/23 03:06:38;;;;;;;15.25;8.57;;;;;;;12.94;100.00;100987.50;4935720;29;20087;-70
2023/05/23 03:09:04;;;;;;;15.70;8.52;;;;;;;12.95;100.00;100980.78;4935309;28;20122;-70
2023/05/23 03:11:29;;;;;;;16.27;8.95;;;;;;;12.99;100.00;100990.25;4919760;29;20088;-70
2023/05/23 03:13:55;;;;;;;15.00;8.23;;;;;;;12.98;100.00;100994.13;4935693;29;20032;-70
2023/05/23 03:16:22;;;;;;;14.15;8.23;;;;;;;12.96;100.00;100997.25;4920012;29;20118;-70
2023/05/23 03:18:47;;;;;;;14.10;8.10;;;;;;;12.99;100.00;100998.59;4919508;29;20039;-70
2023/05/23 03:21:13;;;;;;;15.55;7.68;;;;;;;12.95;100.00;100994.72;4919763;29;20044;-70
2023/05/23 03:23:38;;;;;;;18.83;10.38;;;;;;;12.87;100.00;100993.47;4935200;29;20394;-70
2023/05/23 03:26:05;;;;;;;15.68;8.95;;;;;;;12.89;100.00;100993.16;4919729;29;20056;-70
2023/05/23 03:28:31;;;;;;;14.60;9.02;;;;;;;12.87;100.00;100995.38;4935144;29;20027;-70
2023/05/23 03:30:57;;;;;;;14.30;8.45;;;;;;;12.85;100.00;100989.31;4919666;29;20043;-70
2023/05/23 03:33:22;;;;;;;15.20;9.10;;;;;;;12.81;100.00;100991.84;4919537;29;20054;-70
2023/05/23 03:35:48;;;;;;;16.50;10.50;;;;;;;12.80;100.00;100992.16;4935282;29;20088;-70
2023/05/23 03:38:13;;;;;;;17.13;10.80;;;;;;;12.75;100.00;100988.28;4917721;29;20509;-70
2023/05/23 03:40:39;;;;;;;21.88;10.82;;;;;;;12.74;100.00;100983.84;4919132;29;20374;-70
2023/05/23 03:43:05;;;;;;;15.45;10.10;;;;;;;12.73;100.00;100984.97;4935172;29;20039;-70
2023/05/23 03:45:31;;;;;;;19.33;11.15;;;;;;;12.72;100.00;100976.91;4919149;29;20024;-70
2023/05/23 03:47:57;;;;;;;19.40;10.57;;;;;;;12.65;100.00;100982.84;4918802;29;20040;-70
2023/05/23 03:50:22;;;;;;;18.10;10.35;;;;;;;12.65;100.00;100985.63;4916010;29;20516;-70
2023/05/23 03:52:48;;;;;;;17.42;11.18;;;;;;;12.66;100.00;100970.56;4914192;29;20058;-70
2023/05/23 03:55:13;;;;;;;18.92;10.98;;;;;;;12.64;100.00;100980.34;4934837;29;20039;-70
2023/05/23 03:57:39;;;;;;;14.30;9.15;;;;;;;12.62;100.00;100980.66;4934984;28;20060;-70
2023/05/23 04:00:05;;;;;;;21.63;11.68;;;;;;;12.55;100.00;100976.56;4934813;29;20028;-70
2023/05/23 04:02:31;;;;;;;22.73;11.88;;;;;;;12.50;100.00;100977.44;4903325;29;20071;-70
2023/05/23 04:04:57;;;;;;;23.23;13.57;;;;;;;12.48;100.00;100988.03;4934626;29;20396;-70
2023/05/23 04:07:25;;;;;;;29.58;16.73;;;;;;;12.42;100.00;100980.88;4933665;29;20037;-70
2023/05/23 04:09:50;;;;;;;27.48;15.73;;;;;;;12.39;100.00;100979.50;4915354;29;20036;-70
2023/05/23 04:12:16;;;;;;;30.13;16.90;;;;;;;12.38;100.00;100979.81;4918779;29;20413;-70
2023/05/23 04:14:42;;;;;;;33.20;16.40;;;;;;;12.37;100.00;100983.69;4934872;29;20039;-70
2023/05/23 04:17:07;;;;;;;28.55;16.52;;;;;;;12.36;100.00;100980.09;4934127;29;20036;-70
2023/05/23 04:19:33;;;;;;;28.95;16.42;;;;;;;12.39;100.00;100981.47;4918786;29;20028;-70
2023/05/23 04:21:59;;;;;;;28.33;15.48;;;;;;;12.39;100.00;100975.88;4918855;29;20037;-70
2023/05/23 04:24:25;;;;;;;27.88;14.65;;;;;;;12.40;100.00;100977.56;4918776;29;20028;-70
2023/05/23 04:26:50;;;;;;;23.98;13.73;;;;;;;12.44;100.00;100989.75;4934349;29;20060;-70
2023/05/23 04:29:16;;;;;;;22.35;12.93;;;;;;;12.48;100.00;100990.81;4912906;29;20032;-70
2023/05/23 04:31:44;;;;;;;23.80;13.10;;;;;;;12.47;100.00;100984.44;4918837;29;20083;-70
2023/05/23 04:34:10;;;;;;;27.42;13.20;;;;;;;12.53;100.00;100999.13;4918765;29;20033;-70
2023/05/23 04:36:36;;;;;;;24.95;13.02;;;;;;;12.53;100.00;101002.75;4934598;29;20536;-70
2023/05/23 04:39:05;;;;;;;25.77;12.73;;;;;;;12.56;100.00;100998.53;4918519;29;20037;-70
2023/05/23 04:41:31;;;;;;;29.02;13.68;;;;;;;12.60;100.00;100998.78;4932978;29;20083;-70
2023/05/23 04:43:57;;;;;;;24.98;13.05;;;;;;;12.64;100.00;100999.84;4918603;29;20028;-70
2023/05/23 04:46:25;;;;;;;27.30;13.40;;;;;;;12.64;100.00;101002.63;4934538;29;20028;-70
2023/05/23 04:48:52;;;;;;;21.30;12.10;;;;;;;12.66;100.00;101001.22;4919014;29;20032;-70
2023/05/23 04:51:18;;;;;;;23.15;11.65;;;;;;;12.70;100.00;100996.72;4918299;29;20092;-70
2023/05/23 04:53:43;;;;;;;22.27;12.35;;;;;;;12.75;100.00;100999.44;4933891;29;20033;-70
2023/05/23 04:56:09;;;;;;;23.27;11.05;;;;;;;12.77;100.00;100993.56;4918297;29;20060;-70
2023/05/23 04:58:34;;;;;;;16.67;9.85;;;;;;;12.81;100.00;100999.38;4919347;29;20036;-70
2023/05/23 05:01:00;;;;;;;18.77;10.27;;;;;;;12.85;100.00;101006.03;4937655;29;20056;-70
2023/05/23 05:03:25;;;;;;;18.70;10.07;;;;;;;12.88;100.00;101008.22;4922425;29;20051;-70
2023/05/23 05:05:52;;;;;;;17.50;9.80;;;;;;;12.90;100.00;101003.19;4920670;29;20040;-70
2023/05/23 05:08:19;;;;;;;20.60;9.77;;;;;;;12.96;100.00;101008.38;4937899;29;20042;-70
2023/05/23 05:10:44;;;;;;;16.83;8.25;;;;;;;13.01;100.00;101010.28;4937919;29;20032;-70
2023/05/23 05:13:10;;;;;;;15.20;8.60;;;;;;;13.03;100.00;101009.97;4922163;29;20537;-70
2023/05/23 05:15:35;;;;;;;13.52;8.45;;;;;;;13.06;100.00;101003.81;4921736;29;20134;-70
2023/05/23 05:18:00;;;;;;;19.15;7.88;;;;;;;13.07;100.00;101016.63;4938602;29;20032;-70
2023/05/23 05:20:26;;;;;;;13.73;7.75;;;;;;;13.10;100.00;101008.50;4937695;29;20039;-70
2023/05/23 05:22:58;;;;;;;14.02;7.68;;;;;;;13.15;100.00;101021.56;4937798;29;20036;-70
2023/05/23 05:25:26;;;;;;;15.95;6.90;;;;;;;13.14;100.00;101006.75;4936972;29;20028;-70
2023/05/23 05:27:51;;;;;;;12.95;7.05;;;;;;;13.18;100.00;101010.63;4937405;29;20482;-70
2023/05/23 05:30:17;;;;;;;14.88;6.97;;;;;;;13.19;100.00;101012.25;4937375;28;20039;-70
2023/05/23 05:32:45;;;;;;;12.35;6.63;;;;;;;13.22;100.00;101010.00;4921695;29;20028;-70
2023/05/23 05:35:12;;;;;;;13.45;6.80;;;;;;;13.27;100.00;101012.78;4937012;29;20039;-70
2023/05/23 05:37:38;;;;;;;11.27;5.75;;;;;;;13.30;100.00;101009.38;4937175;29;20028;-70
2023/05/23 05:40:06;;;;;;;12.65;5.63;;;;;;;13.32;100.00;101004.34;4921477;29;20035;-70
2023/05/23 05:42:31;;;;;;;12.45;6.18;;;;;;;13.36;100.00;101010.97;4937018;29;20040;-70
2023/05/23 05:44:57;;;;;;;13.05;6.47;;;;;;;13.38;100.00;101003.94;4921288;29;20084;-70
2023/05/23 05:47:22;;;;;;;13.32;5.85;;;;;;;13.37;100.00;101013.47;4937188;28;20032;-70
2023/05/23 05:49:48;;;;;;;13.57;6.55;;;;;;;13.39;100.00;101013.16;4921241;29;20501;-70
2023/05/23 05:52:13;;;;;;;9.18;5.00;;;;;;;13.42;100.00;101015.31;4921038;29;20028;-70
2023/05/23 05:54:38;;;;;;;11.70;5.70;;;;;;;13.44;100.00;101018.66;4905205;29;20039;-70
2023/05/23 05:57:04;;;;;;;11.95;5.47;;;;;;;13.46;100.00;101016.41;4937037;29;20391;-70
2023/05/23 05:59:30;;;;;;;12.13;5.63;;;;;;;13.49;100.00;101024.16;4937182;29;20036;-70
2023/05/23 06:01:55;;;;;;;9.20;5.00;;;;;;;13.53;100.00;101022.41;4936937;29;20496;-71
2023/05/23 06:04:21;;;;;;;11.88;5.63;;;;;;;13.51;100.00;101027.50;4936822;29;20032;-70
2023/05/23 06:06:46;;;;;;;14.95;6.35;;;;;;;13.56;100.00;101018.19;4936923;29;20039;-70
2023/05/23 06:09:12;;;;;;;11.63;5.97;;;;;;;13.59;100.00;101020.38;4936530;29;20038;-70
2023/05/23 06:11:39;;;;;;;9.43;5.15;;;;;;;13.65;100.00;101024.78;4921318;29;20036;-70
2023/05/23 06:14:05;;;;;;;12.90;5.82;;;;;;;13.68;100.00;101023.31;4936623;29;20454;-70
2023/05/23 06:16:30;;;;;;;11.70;6.05;;;;;;;13.69;100.00;101013.84;4936650;29;20028;-70
2023/05/23 06:18:56;;;;;;;13.63;5.57;;;;;;;13.77;100.00;101021.53;4936657;29;20780;-70
2023/05/23 06:21:21;;;;;;;10.00;5.15;;;;;;;13.80;100.00;101020.91;4920835;28;20040;-70
2023/05/23 06:23:47;;;;;;;11.73;5.38;;;;;;;13.85;100.00;101020.84;4936604;29;20500;-70
2023/05/23 06:26:12;;;;;;;9.48;5.55;;;;;;;13.86;100.00;101025.28;4936584;29;20095;-70
2023/05/23 06:28:38;;;;;;;12.00;5.70;;;;;;;13.93;100.00;101030.47;4936281;29;20055;-70
2023/05/23 06:31:04;;;;;;;10.95;6.20;;;;;;;13.97;100.00;101031.53;4936388;29;20070;-70
2023/05/23 06:33:30;;;;;;;11.15;5.57;;;;;;;14.03;100.00;101036.72;4936313;29;20032;-70
2023/05/23 06:35:56;;;;;;;11.02;6.28;;;;;;;14.08;100.00;101039.44;4920468;29;20028;-70
2023/05/23 06:38:21;;;;;;;11.20;6.03;;;;;;;14.14;100.00;101033.75;4935956;29;20040;-70
2023/05/23 06:40:47;;;;;;;12.70;5.20;;;;;;;14.19;100.00;101039.28;4936363;29;20062;-70
2023/05/23 06:43:12;;;;;;;14.50;6.80;;;;;;;14.24;100.00;101034.41;4940332;29;20063;-70
2023/05/23 06:45:38;;;;;;;14.65;6.70;;;;;;;14.31;100.00;101043.22;4927800;29;20028;-70
2023/05/23 06:48:03;;;;;;;10.40;5.75;;;;;;;14.39;100.00;101052.03;4930164;29;20084;-71
2023/05/23 06:50:30;;;;;;;14.98;6.80;;;;;;;14.45;100.00;101048.84;4917135;29;20107;-77
2023/05/23 06:52:55;;;;;;;11.45;6.13;;;;;;;14.52;100.00;101049.31;4924094;29;20096;-76
2023/05/23 06:55:22;;;;;;;15.35;6.80;;;;;;;14.62;100.00;101050.25;4935848;29;20039;-76
2023/05/23 06:57:50;;;;;;;14.65;6.93;;;;;;;14.69;100.00;101056.28;4920015;29;20060;-77
2023/05/23 07:00:16;;;;;;;14.77;6.53;;;;;;;14.81;100.00;101056.59;4920104;29;20059;-76
2023/05/23 07:02:44;;;;;;;13.35;7.78;;;;;;;14.86;100.00;101059.28;4935574;29;20047;-76
2023/05/23 07:05:09;;;;;;;16.75;7.13;;;;;;;14.95;100.00;101060.22;4915092;29;20032;-76
2023/05/23 07:07:35;;;;;;;14.63;6.90;;;;;;;15.02;100.00;101053.41;4919726;29;20557;-76
2023/05/23 07:10:00;;;;;;;13.43;6.93;;;;;;;15.14;100.00;101065.72;4916567;29;20036;-76
2023/05/23 07:12:26;;;;;;;12.93;8.00;;;;;;;15.25;100.00;101071.94;4918252;29;20039;-76
2023/05/23 07:14:51;;;;;;;18.00;8.27;;;;;;;15.38;100.00;101059.91;4935656;29;20036;-69
2023/05/23 07:17:17;;;;;;;13.93;7.70;;;;;;;15.50;100.00;101064.97;4921155;29;20044;-69
2023/05/23 07:19:42;;;;;;;14.75;7.63;;;;;;;15.70;100.00;101063.69;4932460;29;20036;-69
2023/05/23 07:22:07;;;;;;;14.48;7.82;;;;;;;15.86;100.00;101065.00;4919123;29;20028;-69
2023/05/23 07:24:33;;;;;;;18.23;7.97;;;;;;;16.10;100.00;101058.25;4933742;29;20043;-68
2023/05/23 07:26:58;;;;;;;13.70;7.60;;;;;;;16.28;100.00;101068.47;4919499;29;20032;-69
2023/05/23 07:29:24;;;;;;;14.98;7.60;;;;;;;16.43;100.00;101061.63;4927724;29;20032;-68
2023/05/23 07:31:50;;;;;;;14.65;8.40;;;;;;;16.64;100.00;101064.72;4934822;29;20032;-69
2023/05/23 07:34:15;;;;;;;13.88;7.63;;;;;;;16.80;100.00;101069.94;4919431;29;20032;-70
2023/05/23 07:36:41;;;;;;;15.70;7.63;;;;;;;17.00;100.00;101068.56;4935058;29;20084;-69
2023/05/23 07:39:07;;;;;;;15.27;8.20;;;;;;;17.15;100.00;101071.75;4935118;29;20047;-69
2023/05/23 07:41:32;;;;;;;17.02;8.38;;;;;;;17.24;100.00;101068.13;4907926;29;20028;-69
2023/05/23 07:43:58;;;;;;;18.25;9.13;;;;;;;17.29;100.00;101071.63;4903575;29;20473;-78
2023/05/23 07:46:23;;;;;;;15.38;8.18;;;;;;;17.41;100.00;101076.59;4934891;29;20036;-76
2023/05/23 07:48:49;;;;;;;16.13;8.45;;;;;;;17.38;100.00;101078.09;4919059;29;20482;-78
2023/05/23 07:51:20;;;;;;;17.08;9.45;;;;;;;17.48;100.00;101079.75;4918156;29;20040;-78
2023/05/23 07:53:46;;;;;;;18.95;8.70;;;;;;;17.58;100.00;101090.69;4918674;29;20095;-78
2023/05/23 07:56:11;;;;;;;13.90;8.82;;;;;;;17.63;100.00;101098.13;4934685;29;20091;-78
2023/05/23 07:58:37;;;;;;;14.60;9.07;;;;;;;17.65;100.00;101098.63;4919319;29;20036;-78
2023/05/23 08:01:03;;;;;;;19.58;10.18;;;;;;;17.62;100.00;101107.72;4934908;29;20092;-78
2023/05/23 08:03:28;;;;;;;14.20;9.80;;;;;;;17.59;100.00;101108.38;4934786;29;20554;-78
2023/05/23 08:05:54;;;;;;;18.33;10.63;;;;;;;17.59;100.00;101102.75;4919112;29;20040;-70
2023/05/23 08:08:19;;;;;;;18.48;9.73;;;;;;;17.58;100.00;101113.16;4931497;29;20047;-70
2023/05/23 08:10:45;;;;;;;16.88;10.70;;;;;;;17.50;100.00;101104.72;4915839;29;20039;-70
2023/05/23 08:13:11;;;;;;;20.33;11.45;;;;;;;17.36;100.00;101110.47;4919079;29;20036;-70
2023/05/23 08:15:36;;;;;;;17.38;10.60;;;;;;;17.25;100.00;101109.09;4934555;28;20476;-70
2023/05/23 08:18:03;;;;;;;20.38;11.82;;;;;;;17.15;100.00;101091.38;4915804;29;20037;-70
2023/05/23 08:20:31;;;;;;;16.85;12.02;;;;;;;17.11;100.00;101107.22;4915622;29;20060;-70
2023/05/23 08:23:00;;;;;;;18.70;11.38;;;;;;;17.12;100.00;101108.88;4934479;29;20043;-70
2023/05/23 08:25:29;;;;;;;22.17;12.07;;;;;;;17.10;100.00;101111.16;4918432;29;20036;-70
2023/05/23 08:27:56;;;;;;;21.83;12.02;;;;;;;16.98;100.00;101111.78;4919098;29;20032;-70
2023/05/23 08:30:22;;;;;;;20.15;11.32;;;;;;;16.99;100.00;101115.41;4934439;29;20151;-71
2023/05/23 08:32:47;;;;;;;24.73;12.70;;;;;;;16.86;100.00;101114.38;4934615;29;20048;-70
2023/05/23 08:35:13;;;;;;;20.50;12.80;;;;;;;16.80;100.00;101132.50;4921725;29;20036;-70
2023/05/23 08:37:38;;;;;;;20.90;12.60;;;;;;;16.81;100.00;101128.53;4922981;29;20039;-70
2023/05/23 08:40:07;;;;;;;24.15;13.13;;;;;;;16.80;100.00;101117.63;4938253;29;20028;-70
2023/05/23 08:42:33;;;;;;;19.88;12.70;;;;;;;16.72;100.00;101119.22;4938383;29;20028;-70
2023/05/23 08:44:58;;;;;;;20.75;12.10;;;;;;;16.72;100.00;101119.22;4922354;29;20064;-70
2023/05/23 08:47:23;;;;;;;18.35;11.93;;;;;;;16.71;100.00;101123.97;4922522;29;20040;-70
2023/05/23 08:49:50;;;;;;;19.38;12.77;;;;;;;16.69;100.00;101114.25;4938175;29;20028;-71
2023/05/23 08:52:16;;;;;;;17.60;12.02;;;;;;;16.64;100.00;101109.59;4938010;29;20507;-69
2023/05/23 08:54:42;;;;;;;20.40;11.57;;;;;;;16.71;100.00;101109.94;4918916;29;20041;-70
2023/05/23 08:57:07;;;;;;;18.30;11.40;;;;;;;16.77;100.00;101107.91;4938099;29;20048;-70
2023/05/23 08:59:33;;;;;;;20.70;11.38;;;;;;;16.81;100.00;101113.69;4938165;29;20036;-69
2023/05/23 09:01:58;;;;;;;20.25;11.57;;;;;;;16.81;100.00;101116.50;4922163;29;20713;-69
2023/05/23 09:04:24;;;;;;;16.40;11.32;;;;;;;16.89;100.00;101112.91;4922081;29;20040;-69
2023/05/23 09:06:49;;;;;;;19.90;12.18;;;;;;;16.92;100.00;101107.47;4919733;29;20508;-70
2023/05/23 09:09:15;;;;;;;17.05;11.65;;;;;;;16.97;100.00;101121.38;4937846;29;20036;-69
2023/05/23 09:11:40;;;;;;;17.27;11.77;;;;;;;17.07;100.00;101125.03;4913472;29;20039;-70
2023/05/23 09:14:06;;;;;;;17.52;11.60;;;;;;;17.20;100.00;101130.53;4921880;29;20036;-69
2023/05/23 09:16:33;;;;;;;21.40;12.55;;;;;;;17.22;100.00;101121.81;4921962;29;20056;-70
2023/05/23 09:18:59;;;;;;;19.42;12.15;;;;;;;17.31;100.00;101122.66;4937583;29;20039;-69
2023/05/23 09:21:25;;;;;;;20.65;12.00;;;;;;;17.36;100.00;101121.69;4937786;29;20083;-69
2023/05/23 09:23:50;;;;;;;20.73;13.02;;;;;;;17.35;100.00;101123.66;4921719;29;20386;-69
2023/05/23 09:26:16;;;;;;;22.77;12.85;;;;;;;17.32;100.00;101127.09;4920405;29;20047;-70
2023/05/23 09:28:41;;;;;;;20.80;12.85;;;;;;;17.35;100.00;101128.44;4905805;29;20039;-69
2023/05/23 09:31:10;;;;;;;22.55;14.02;;;;;;;17.42;100.00;101126.81;4918602;29;20402;-70
2023/05/23 09:33:38;;;;;;;22.52;12.95;;;;;;;17.43;100.00;101130.44;4934375;29;20071;-70
2023/05/23 09:36:05;;;;;;;17.90;12.80;;;;;;;17.49;100.00;101142.38;4937255;29;20082;-69
2023/05/23 09:38:31;;;;;;;25.13;12.68;;;;;;;17.55;100.00;101135.44;4937013;29;20032;-69
2023/05/23 09:40:57;;;;;;;20.30;12.70;;;;;;;17.63;100.00;101138.28;4921592;29;20028;-69
2023/05/23 09:43:23;;;;;;;22.27;13.30;;;;;;;17.59;100.00;101142.91;4937337;29;20024;-70
2023/05/23 09:45:48;;;;;;;22.25;12.52;;;;;;;17.52;100.00;101145.34;4935027;29;20047;-69
2023/05/23 09:48:14;;;;;;;18.95;12.65;;;;;;;17.55;100.00;101141.91;4919457;29;20040;-69
2023/05/23 09:50:39;;;;;;;20.48;12.88;;;;;;;17.55;100.00;101139.09;4937266;29;20036;-69
2023/05/23 09:53:05;;;;;;;20.73;13.23;;;;;;;17.46;100.00;101137.41;4921757;29;20040;-69
2023/05/23 09:55:30;;;;;;;23.08;12.75;;;;;;;17.36;100.00;101156.22;4921594;29;20080;-69
2023/05/23 09:58:00;;;;;;;19.52;12.35;;;;;;;17.37;100.00;101154.22;4921085;29;20028;-78
2023/05/23 10:00:25;;;;;;;23.88;13.73;;;;;;;17.36;100.00;101161.00;4924327;29;20059;-78
2023/05/23 10:03:13;;;;;;;23.10;13.00;;;;;;;17.22;100.00;101160.25;4941450;29;20103;-78
2023/05/23 10:05:46;;;;;;;28.75;13.40;;;;;;;17.12;100.00;101159.38;4908754;29;20032;-78
2023/05/23 10:08:25;;;;;;;24.88;13.18;;;;;;;17.08;100.00;101155.59;4923971;29;20028;-78
2023/05/23 10:10:57;;;;;;;26.48;12.88;;;;;;;17.06;100.00;101154.25;4940179;29;20492;-78
2023/05/23 10:13:29;;;;;;;24.20;11.85;;;;;;;17.01;100.00;101158.00;4936199;29;20398;-78
2023/05/23 10:16:04;;;;;;;26.25;11.85;;;;;;;16.98;100.00;101158.66;4916879;29;20039;-78
2023/05/23 10:18:30;;;;;;;20.08;11.18;;;;;;;16.98;100.00;101155.84;4918638;29;20036;-77
2023/05/23 10:20:57;;;;;;;20.48;11.38;;;;;;;17.05;100.00;101156.22;4915961;29;20035;-78
2023/05/23 10:23:22;;;;;;;21.23;11.20;;;;;;;16.93;100.00;101148.38;4915545;29;20028;-78
2023/05/23 10:25:48;;;;;;;25.55;10.43;;;;;;;17.01;100.00;101163.63;4915872;29;20028;-77
2023/05/23 10:28:13;;;;;;;23.23;11.15;;;;;;;16.92;100.00;101157.16;4917071;29;20063;-78
2023/05/23 10:30:39;;;;;;;25.30;11.82;;;;;;;16.97;100.00;101157.03;4923148;29;20615;-78
2023/05/23 10:33:04;;;;;;;19.73;11.50;;;;;;;17.07;100.00;101159.53;4904757;29;20074;-78
2023/05/23 10:35:33;;;;;;;18.92;10.77;;;;;;;17.06;100.00;101163.50;4920179;29;20392;-78
2023/05/23 10:38:12;;;;;;;18.83;10.93;;;;;;;17.07;100.00;101159.53;4937642;29;20034;-78
2023/05/23 10:41:00;;;;;;;25.30;11.60;;;;;;;17.09;100.00;101162.84;4917073;29;20040;-78
2023/05/23 10:43:33;;;;;;;19.33;10.85;;;;;;;17.15;100.00;101166.34;4935227;29;20032;-78
2023/05/23 10:45:59;;;;;;;22.42;11.80;;;;;;;17.18;100.00;101163.72;4930281;29;20378;-78
2023/05/23 10:48:28;;;;;;;15.65;10.13;;;;;;;17.23;100.00;101159.13;4914150;29;20058;-78
2023/05/23 10:51:07;;;;;;;18.20;10.05;;;;;;;17.30;100.00;101163.13;4933361;29;20030;-78
2023/05/23 10:53:43;;;;;;;16.50;9.68;;;;;;;17.38;100.00;101153.91;4934362;29;20024;-78
2023/05/23 10:56:13;;;;;;;19.92;10.73;;;;;;;17.52;100.00;101148.16;4929631;29;20041;-78
2023/05/23 10:58:41;;;;;;;20.57;10.73;;;;;;;17.63;100.00;101148.69;4929985;29;20071;-78
2023/05/23 11:01:07;;;;;;;17.45;10.35;;;;;;;17.75;100.00;101146.09;4920688;29;20915;-78